Latest Weather Observations for Low Head

IDT60801

Issued at 2:02 pm EDT Tuesday 28 February 2017 (issued every 30 minutes, with the page automatically refreshed every 10 minutes)

About weather observations | Map of weather stations | Latest weather observations for TAS | Other Formats
Station Details ID: 091293 Name: LOW HEAD Lat: -41.05 Lon: 146.79 Height: 3.0 m
Data from the previous 72 hours. | See also: Recent months at Low Head
Date/Time
EDT
Temp
°C
App
Temp
°C
Dew
Point
°C
Rel
Hum
%
Delta-T
°C
Wind Press
QNH
hPa
Press
MSL
hPa
Rain since
9am
mm
Dir  Spd
km/h
Gust
km/h
Spd
kts
Gust
kts
28/02:00pm 21.9 21.1 18.1 79 2.4 NE 19 20 10 11 1023.3 1023.3 0.0
28/01:30pm 21.7 20.9 18.1 80 2.2 NE 19 20 10 11 1023.4 1023.4 0.0
28/01:00pm 21.4 20.3 17.8 80 2.2 NE 20 22 11 12 1023.6 1023.6 0.0
28/12:30pm 21.3 19.4 17.7 80 2.2 NE 24 26 13 14 1023.8 1023.8 0.0
28/12:00pm 21.1 19.9 17.5 80 2.2 NE 20 22 11 12 1024.0 1024.0 0.0
28/11:30am 21.1 19.5 17.5 80 2.2 NE 22 24 12 13 1024.0 1024.0 0.0
28/11:00am 21.0 20.6 17.2 79 2.3 NE 15 19 8 10 1024.1 1024.1 0.0
28/10:30am 21.4 22.0 17.6 79 2.3 SSE 11 17 6 9 1024.2 1024.2 0.0
28/10:00am 19.1 18.3 16.1 83 1.8 S 15 19 8 10 1024.2 1024.2 0.0
28/09:30am 18.3 16.6 15.7 85 1.5 S 19 22 10 12 1024.2 1024.2 0.0
28/09:00am 17.4 15.2 15.0 86 1.4 SSE 20 24 11 13 1024.3 1024.3 0.0
28/08:30am 16.9 14.6 14.7 87 1.3 SSE 20 24 11 13 1024.4 1024.4 0.0
28/08:00am 16.4 15.0 14.4 88 1.1 SSE 15 20 8 11 1024.4 1024.4 0.0
28/07:30am 15.9 14.3 13.9 88 1.1 SSE 15 19 8 10 1024.3 1024.3 0.0
28/07:00am 15.7 13.6 13.7 88 1.1 SSE 17 20 9 11 1024.2 1024.2 0.0
28/06:30am 15.9 13.8 13.7 87 1.2 SSE 17 22 9 12 1024.1 1024.1 0.0
28/06:00am 16.0 13.6 13.7 86 1.3 SSE 19 20 10 11 1023.9 1023.9 0.0
28/05:30am 15.9 13.5 13.7 87 1.2 SSE 19 20 10 11 1023.9 1023.9 0.0
28/05:00am 15.8 13.7 13.5 86 1.3 SSE 17 20 9 11 1024.0 1024.0 0.0
28/04:30am 15.8 13.7 13.5 86 1.3 SSE 17 20 9 11 1024.2 1024.2 0.0
28/04:00am 16.3 14.7 14.0 86 1.3 SSE 15 19 8 10 1024.5 1024.5 0.0
28/03:30am 15.9 14.1 13.4 85 1.4 SSE 15 17 8 9 1024.8 1024.8 0.0
28/03:00am 15.5 13.9 12.8 84 1.5 SSE 13 13 7 7 1025.1 1025.1 0.0
28/02:30am 15.9 14.8 13.0 83 1.6 SSE 11 13 6 7 1025.2 1025.2 0.0
28/02:00am 15.7 14.2 13.0 84 1.5 SSE 13 15 7 8 1025.5 1025.5 0.0
28/01:30am 15.7 14.4 12.6 82 1.7 SE 11 17 6 9 1025.6 1025.6 0.0
28/01:00am 16.0 14.1 13.1 83 1.6 ESE 15 17 8 9 1025.6 1025.6 0.0
28/12:30am 16.0 14.1 13.1 83 1.6 ESE 15 20 8 11 1025.5 1025.5 0.0
28/12:00am 15.9 14.3 12.8 82 1.7 ESE 13 19 7 10 1025.7 1025.7 0.0
 
Date/Time
EDT
Temp
°C
App
Temp
°C
Dew
Point
°C
Rel
Hum
%
Delta-T
°C
Wind Press
QNH
hPa
Press
MSL
hPa
Rain since
9am
mm
Dir  Spd
km/h
Gust
km/h
Spd
kts
Gust
kts
27/11:30pm 16.3 14.8 13.2 82 1.7 E 13 17 7 9 1025.8 1025.8 0.0
27/11:00pm 16.6 14.9 13.5 82 1.7 E 15 17 8 9 1025.9 1025.9 0.0
27/10:30pm 17.1 15.1 13.8 81 1.9 E 17 20 9 11 1025.8 1025.8 0.0
27/10:00pm 17.1 14.6 13.6 80 2.0 E 19 20 10 11 1025.8 1025.8 0.0
27/09:30pm 17.8 15.4 14.3 80 2.0 E 20 24 11 13 1025.8 1025.8 0.0
27/09:00pm 17.9 15.8 14.6 81 1.9 E 19 20 10 11 1025.7 1025.7 0.0
27/08:30pm 18.4 15.1 15.1 81 1.9 ENE 26 30 14 16 1025.5 1025.5 0.0
27/08:00pm 18.6 15.1 15.5 82 1.8 ENE 28 35 15 19 1025.3 1025.3 0.0
27/07:30pm 18.9 15.6 16.0 83 1.7 ENE 28 32 15 17 1025.2 1025.2 0.0
27/07:00pm 19.1 16.9 16.0 82 1.8 ENE 22 26 12 14 1025.0 1025.0 0.0
27/06:30pm 19.4 17.7 16.2 82 1.9 NE 20 22 11 12 1025.0 1025.0 0.0
27/06:00pm 19.6 17.5 16.3 81 2.0 NE 22 26 12 14 1024.9 1024.9 0.0
27/05:30pm 19.6 17.2 16.3 81 2.0 NE 24 28 13 15 1024.7 1024.7 0.0
27/05:00pm 19.6 17.5 16.3 81 2.0 NE 22 24 12 13 1025.0 1025.0 0.0
27/04:30pm 20.0 17.5 16.2 79 2.3 NE 24 28 13 15 1025.2 1025.2 0.0
27/04:00pm 19.9 17.0 16.2 79 2.2 ENE 26 30 14 16 1025.3 1025.3 0.0
27/03:30pm 20.1 17.6 16.1 78 2.4 NE 24 28 13 15 1025.6 1025.6 0.0
27/03:00pm 20.1 16.7 15.9 77 2.5 NE 28 32 15 17 1025.8 1025.8 0.0
27/02:30pm 20.1 16.7 15.7 76 2.6 NE 28 30 15 16 1025.9 1025.9 0.0
27/02:00pm 20.4 16.6 15.8 75 2.7 ENE 30 33 16 18 1025.9 1025.9 0.0
27/01:30pm 20.0 16.1 15.4 75 2.7 NE 30 32 16 17 1026.0 1026.0 0.0
27/01:00pm 20.1 16.6 15.5 75 2.7 NE 28 32 15 17 1026.3 1026.3 0.0
27/12:30pm 20.0 16.4 15.2 74 2.8 NE 28 32 15 17 1026.5 1026.5 0.0
27/12:00pm 20.0 16.0 15.2 74 2.8 ENE 30 33 16 18 1026.6 1026.6 0.0
27/11:30am 19.8 16.8 14.8 73 2.9 ENE 24 28 13 15 1026.9 1026.9 0.0
27/11:00am 19.5 16.6 14.1 71 3.1 ENE 22 30 12 16 1027.0 1027.0 0.0
27/10:30am 19.3 16.7 13.7 70 3.2 ENE 20 26 11 14 1027.1 1027.1 0.0
27/10:00am 19.2 16.5 14.5 74 2.7 E 22 30 12 16 1027.2 1027.2 0.0
27/09:30am 16.2 12.9 12.9 81 1.8 S 22 26 12 14 1027.0 1027.0 0.0
27/09:00am 15.2 11.4 12.3 83 1.6 S 24 28 13 15 1026.9 1026.9 0.0
27/08:30am 14.2 11.2 12.1 87 1.1 SSE 19 22 10 12 1026.9 1026.9 0.0
27/08:00am 13.2 10.0 11.4 89 0.9 SSE 19 26 10 14 1026.7 1026.7 0.0
27/07:30am 13.0 9.6 11.2 89 0.9 SSE 20 26 11 14 1026.7 1026.7 0.0
27/07:00am 12.6 9.1 10.8 89 0.9 SSE 20 26 11 14 1026.4 1026.4 0.0
27/06:30am 12.8 9.3 11.0 89 0.9 SSE 20 24 11 13 1026.2 1026.2 0.0
27/06:00am 12.8 9.9 10.9 88 1.0 SSE 17 22 9 12 1026.0 1026.0 0.0
27/05:30am 12.3 9.2 10.4 88 1.0 SSE 17 20 9 11 1025.8 1025.8 0.0
27/05:00am 12.5 9.8 10.4 87 1.1 SSE 15 17 8 9 1025.8 1025.8 0.0
27/04:30am 13.4 10.5 11.1 86 1.2 SSE 17 22 9 12 1025.8 1025.8 0.0
27/04:00am 13.3 10.3 10.8 85 1.3 SSE 17 20 9 11 1026.0 1026.0 0.0
27/03:30am 12.9 10.1 10.1 83 1.4 SSE 15 19 8 10 1026.0 1026.0 0.0
27/03:00am 13.6 10.9 10.4 81 1.7 SSE 15 19 8 10 1026.3 1026.3 0.0
27/02:30am 13.3 11.2 9.7 79 1.8 SE 11 15 6 8 1026.2 1026.2 0.0
27/02:00am 13.8 11.3 9.8 77 2.0 SE 13 17 7 9 1026.3 1026.3 0.0
27/01:30am 14.3 11.6 10.3 77 2.1 ESE 15 20 8 11 1026.3 1026.3 0.0
27/01:00am 14.3 12.0 10.3 77 2.1 ESE 13 20 7 11 1026.5 1026.5 0.0
27/12:30am 14.7 12.1 10.7 77 2.1 ESE 15 20 8 11 1026.5 1026.5 0.0
27/12:00am 15.0 11.7 11.0 77 2.1 ESE 19 26 10 14 1026.6 1026.6 0.0
 
Date/Time
EDT
Temp
°C
App
Temp
°C
Dew
Point
°C
Rel
Hum
%
Delta-T
°C
Wind Press
QNH
hPa
Press
MSL
hPa
Rain since
9am
mm
Dir  Spd
km/h
Gust
km/h
Spd
kts
Gust
kts
26/11:30pm 15.0 12.0 10.8 76 2.2 ESE 17 22 9 12 1026.7 1026.7 0.0
26/11:00pm 15.0 12.8 10.8 76 2.2 ESE 13 19 7 10 1026.8 1026.8 0.0
26/10:30pm 15.1 12.9 10.9 76 2.2 SE 13 17 7 9 1026.9 1026.9 0.0
26/10:00pm 15.8 14.2 11.4 75 2.4 E 11 17 6 9 1026.8 1026.8 0.0
26/09:30pm 16.0 14.4 11.4 74 2.5 ESE 11 15 6 8 1026.6 1026.6 0.0
26/09:00pm 17.2 14.7 12.3 73 2.7 E 17 20 9 11 1026.1 1026.1 0.0
26/08:30pm 17.6 14.6 12.7 73 2.7 ENE 20 30 11 16 1025.8 1025.8 0.0
26/08:00pm 18.1 13.7 13.0 72 2.8 ENE 28 30 15 16 1025.5 1025.5 0.0
26/07:30pm 18.2 14.8 12.4 69 3.2 NE 22 26 12 14 1025.4 1025.4 0.0
26/07:00pm 18.2 15.0 12.0 67 3.4 NE 20 24 11 13 1025.4 1025.4 0.0
26/06:30pm 18.2 15.1 12.2 68 3.3 NE 20 22 11 12 1025.3 1025.3 0.0
26/06:00pm 18.8 16.4 12.5 67 3.5 NE 17 20 9 11 1025.1 1025.1 0.0
26/05:30pm 18.9 16.3 11.9 64 3.9 NE 17 20 9 11 1025.0 1025.0 0.0
26/05:00pm 19.2 16.7 12.2 64 3.9 NE 17 20 9 11 1025.1 1025.1 0.0
26/04:30pm 19.1 17.0 12.4 65 3.7 NE 15 19 8 10 1025.4 1025.4 0.0
26/04:00pm 18.8 16.6 12.1 65 3.7 NE 15 17 8 9 1025.6 1025.6 0.0
26/03:30pm 18.4 16.0 11.5 64 3.8 NE 15 17 8 9 1025.9 1025.9 0.0
26/03:00pm 18.3 15.7 12.1 67 3.4 NNE 17 20 9 11 1026.1 1026.1 0.0
26/02:30pm 18.3 15.2 11.6 65 3.7 NNE 19 20 10 11 1026.4 1026.4 0.0
26/02:00pm 18.0 14.4 11.8 67 3.4 NNE 22 26 12 14 1026.5 1026.5 0.0
26/01:30pm 18.2 13.9 12.2 68 3.3 NE 26 28 14 15 1026.5 1026.5 0.0
26/01:00pm 18.0 13.7 12.0 68 3.3 NE 26 28 14 15 1026.7 1026.7 0.0
26/12:30pm 18.1 13.8 11.9 67 3.4 NE 26 28 14 15 1027.0 1027.0 0.0
26/12:00pm 17.9 13.8 11.5 66 3.5 NE 24 28 13 15 1027.0 1027.0 0.0
26/11:30am 17.8 13.7 11.4 66 3.5 NE 24 28 13 15 1027.1 1027.1 0.0
26/11:00am 17.6 13.5 11.4 67 3.3 NE 24 26 13 14 1027.4 1027.4 0.0
26/10:30am 17.5 13.4 11.3 67 3.4 NE 24 26 13 14 1027.4 1027.4 0.0
26/10:00am 17.3 13.0 10.9 66 3.4 ENE 24 28 13 15 1027.2 1027.2 0.0
26/09:30am 17.0 12.7 10.6 66 3.4 ENE 24 28 13 15 1027.0 1027.0 0.0
26/09:00am 16.8 13.4 10.6 67 3.3 ENE 19 24 10 13 1026.8 1026.8 0.0
26/08:30am 15.8 13.6 10.8 72 2.7 ESE 13 17 7 9 1026.8 1026.8 0.0
26/08:00am 13.7 11.5 9.4 75 2.2 SSE 11 15 6 8 1026.6 1026.6 0.0
26/07:30am 12.6 10.5 8.3 75 2.1 SE 9 11 5 6 1026.4 1026.4 0.0
26/07:00am 12.7 10.6 8.2 74 2.2 SE 9 13 5 7 1026.1 1026.1 0.0
26/06:30am 13.8 11.2 9.3 74 2.3 ESE 13 17 7 9 1025.9 1025.9 0.0
26/06:00am 15.0 10.2 10.4 74 2.4 ENE 26 30 14 16 1025.1 1025.1 0.0
26/05:30am 14.9 11.3 9.9 72 2.6 E 19 24 10 13 1025.3 1025.3 0.0
26/05:00am 14.8 11.6 9.8 72 2.6 E 17 20 9 11 1025.4 1025.4 0.0
26/04:30am 14.8 10.7 10.0 73 2.5 E 22 26 12 14 1025.0 1025.0 0.0
26/04:00am 15.0 10.5 10.2 73 2.5 E 24 28 13 15 1025.4 1025.4 0.0
26/03:30am 15.0 10.5 10.2 73 2.5 E 24 26 13 14 1025.6 1025.6 0.0
26/03:00am 14.9 10.4 10.1 73 2.5 E 24 30 13 16 1025.6 1025.6 0.0
26/02:30am 15.2 10.4 10.4 73 2.5 ENE 26 30 14 16 1025.8 1025.8 0.0
26/02:00am 15.1 11.5 10.5 74 2.4 E 20 24 11 13 1026.3 1026.3 0.0
26/01:30am 15.0 11.0 10.4 74 2.4 ENE 22 26 12 14 1026.6 1026.6 0.0
26/01:00am 15.1 10.0 10.7 75 2.3 ENE 28 32 15 17 1026.7 1026.7 0.0
26/12:30am 14.8 10.4 10.4 75 2.3 E 24 28 13 15 1026.8 1026.8 0.0
26/12:00am 14.2 9.3 9.8 75 2.3 E 26 28 14 15 1026.8 1026.8 0.0
 
Date/Time
EDT
Temp
°C
App
Temp
°C
Dew
Point
°C
Rel
Hum
%
Delta-T
°C
Wind Press
QNH
hPa
Press
MSL
hPa
Rain since
9am
mm
Dir  Spd
km/h
Gust
km/h
Spd
kts
Gust
kts
25/11:30pm 14.8 10.8 10.4 75 2.3 E 22 26 12 14 1026.9 1026.9 0.0
25/11:00pm 15.4 12.1 10.8 74 2.4 E 19 26 10 14 1026.8 1026.8 0.0
25/10:30pm 16.4 11.6 11.6 73 2.6 ENE 28 33 15 18 1026.7 1026.7 0.0
25/10:00pm 16.4 11.3 11.8 74 2.5 NE 30 33 16 18 1026.6 1026.6 0.0
25/09:30pm 16.6 11.5 12.0 74 2.5 NE 30 33 16 18 1026.3 1026.3 0.0
25/09:00pm 16.7 11.9 11.8 73 2.7 NE 28 32 15 17 1026.2 1026.2 0.0
25/08:30pm 16.6 11.9 12.0 74 2.5 ENE 28 32 15 17 1026.0 1026.0 0.0
25/08:00pm 16.9 12.6 12.2 74 2.6 NE 26 30 14 16 1025.7 1025.7 0.0
25/07:30pm 16.9 12.6 12.0 73 2.7 NE 26 30 14 16 1025.5 1025.5 0.0
25/07:00pm 17.2 12.6 12.3 73 2.7 NE 28 32 15 17 1025.1 1025.1 0.0
25/06:30pm 17.4 12.4 12.3 72 2.8 NE 30 33 16 18 1025.1 1025.1 0.0
25/06:00pm 17.7 13.1 12.4 71 2.9 NNE 28 32 15 17 1025.1 1025.1 0.0
25/05:30pm 17.7 13.4 11.9 69 3.2 NNE 26 30 14 16 1025.0 1025.0 0.0
25/05:00pm 17.8 13.8 11.8 68 3.3 NNE 24 26 13 14 1025.0 1025.0 0.0
25/04:30pm 18.3 14.1 11.1 63 3.9 NNE 24 28 13 15 1025.1 1025.1 0.0
25/04:00pm 17.7 13.4 9.3 58 4.4 N 22 26 12 14 1025.0 1025.0 0.0
25/03:30pm 17.9 14.0 9.3 57 4.5 N 20 24 11 13 1025.1 1025.1 0.0
25/03:00pm 18.1 14.3 9.7 58 4.4 N 20 20 11 11 1025.3 1025.3 0.0
25/02:30pm 18.3 15.0 10.9 62 4.0 N 19 22 10 12 1025.6 1025.6 0.0

Other Formats:

Comma delimited format used in spreadsheet applications
http://www.bom.gov.au/fwo/IDT60801/IDT60801.95964.axf

JavaScript Object Notation format (JSON) in row-major order
http://www.bom.gov.au/fwo/IDT60801/IDT60801.95964.json